Terminal Aerodrome Forecast
Issued by NWS Wilmington, OH

Home | Current Version | Previous Version | Text Only | Print | Product List | Glossary On
Versions: 1 2 3 4 5 6 7 8 9 10 11 12 13 14 15 16 17 18 19 20 21 22 23 24 25
781
FTUS41 KILN 231120
TAFCVG
TAF
KCVG 231120Z 2312/2418 36013KT 4SM -RA BR OVC008
     FM231800 35012KT P6SM VCSH OVC012
     FM232300 33009KT P6SM OVC008
     FM241300 29005KT P6SM BKN015=

USA.gov is the U.S. government's official web portal to all federal, state and local government web resources and services.